Hardin, MT (59034)

12:21 PM MDT on March 23, 2017 (GMT -0600)
KMTBUSBY2 | | Change Station

Elev 3480 ft 45.63 °N, 107.12 °W | Updated 3 minutes ago

Rain
Rain
44.6 °F
Feels Like 40 °F
N
9.6
Wind Variable Wind from NW
Gusts 14.0 mph

Today
High -- | Low -- °F
--% Chance of Precip.
Yesterday
High -- | Low -- °F
Precip. -- in
Pressure 29.83 in
Visibility 10.0 miles
Clouds Mostly Cloudy 8000 ft
Overcast 15000 ft
Windchill 40 °F
Dew Point 42 °F
Humidity 91%
Rainfall 0.15 in
Snow Depth Not available.
7:07 AM 7:27 PM
Waning Crescent, 21% visible
METAR KBIL 231753Z 10004KT 10SM BKN080 OVC150 10/04 A2983 RMK AO2 SLP101 SHRA DSNT E-S 60000 T01000039 10100 20061 51015
Pressure 29.83 in
Visibility 10.0 miles
Clouds Mostly Cloudy 8000 ft
Overcast 15000 ft
Windchill 40 °F
Dew Point 42 °F
Humidity 91%
Rainfall 0.15 in
Snow Depth Not available.
7:07 AM 7:27 PM
Waning Crescent, 21% visible
METAR KBIL 231753Z 10004KT 10SM BKN080 OVC150 10/04 A2983 RMK AO2 SLP101 SHRA DSNT E-S 60000 T01000039 10100 20061 51015

Get Severe Weather Alerts

Thanks for signing up!

Be on the lookout for a verification email in your inbox.

You'll start receiving the daily forecast at 8 AM.

×

10-Day Weather Forecast

Almanac

Astronomy

Mar. 23, 2017 Rise Set
Actual Time
Civil Twilight
Nautical Twilight
Astronomical Twilight
Moon
Length of Visible Light
Length of Day
Tomorrow will be .
, % of the Moon is Illuminated

Today's Extremes

State Highs State Lows

Community

WunderPhotos

Upload Photos

1,962,540 photos uploaded!

WunderBlog® & News

Nearby

Air Quality

  Air Quality AQ Index Pollutant
Not available.

Snow Depth

Station Depth Elevation

Earthquake Activity

City Distance Mag. Time & Date
Minimum magnitude displayed is 2.5.

Earthquake Activity

City Distance Mag. Time & Date
Minimum magnitude displayed is 2.5.

Coastal Water Temperatures

Place Temperature

Stations

Nearby Weather Stations

Station Location Temp. Windchill Dew Point Humidity Wind Precip. Elev Updated Type
                   

Watches & Warnings

There are currently no watches in effect.